sensor_id;sensor_type;location;lat;lon;timestamp;temperature;humidity
70456;DHT22;57916;51.996;5.180;2022-07-29T00:00:05;22.00;45.80
70456;DHT22;57916;51.996;5.180;2022-07-29T00:02:32;22.00;46.10
70456;DHT22;57916;51.996;5.180;2022-07-29T00:04:59;22.00;46.00
70456;DHT22;57916;51.996;5.180;2022-07-29T00:07:26;21.90;46.20
70456;DHT22;57916;51.996;5.180;2022-07-29T00:09:53;21.90;46.40
70456;DHT22;57916;51.996;5.180;2022-07-29T00:12:22;21.90;46.40
70456;DHT22;57916;51.996;5.180;2022-07-29T00:14:56;21.90;46.50
70456;DHT22;57916;51.996;5.180;2022-07-29T00:17:24;21.80;46.50
70456;DHT22;57916;51.996;5.180;2022-07-29T00:19:52;21.80;46.60
70456;DHT22;57916;51.996;5.180;2022-07-29T00:22:19;21.80;46.60
70456;DHT22;57916;51.996;5.180;2022-07-29T00:24:49;21.70;47.20
70456;DHT22;57916;51.996;5.180;2022-07-29T00:27:17;21.60;47.10
70456;DHT22;57916;51.996;5.180;2022-07-29T00:29:44;21.60;47.10
70456;DHT22;57916;51.996;5.180;2022-07-29T00:32:11;21.60;47.00
70456;DHT22;57916;51.996;5.180;2022-07-29T00:34:38;21.70;47.20
70456;DHT22;57916;51.996;5.180;2022-07-29T00:37:24;21.70;47.10
70456;DHT22;57916;51.996;5.180;2022-07-29T00:39:51;21.60;47.30
70456;DHT22;57916;51.996;5.180;2022-07-29T00:42:18;21.50;47.50
70456;DHT22;57916;51.996;5.180;2022-07-29T00:44:45;21.50;47.50
70456;DHT22;57916;51.996;5.180;2022-07-29T00:47:12;21.50;47.80
70456;DHT22;57916;51.996;5.180;2022-07-29T00:49:40;21.40;47.70
70456;DHT22;57916;51.996;5.180;2022-07-29T00:52:10;21.40;47.90
70456;DHT22;57916;51.996;5.180;2022-07-29T00:54:38;21.40;47.90
70456;DHT22;57916;51.996;5.180;2022-07-29T00:57:11;21.30;47.90
70456;DHT22;57916;51.996;5.180;2022-07-29T00:59:38;21.30;48.10
70456;DHT22;57916;51.996;5.180;2022-07-29T01:02:05;21.30;48.10
70456;DHT22;57916;51.996;5.180;2022-07-29T01:04:32;21.30;48.00
70456;DHT22;57916;51.996;5.180;2022-07-29T01:07:01;21.30;48.00
70456;DHT22;57916;51.996;5.180;2022-07-29T01:09:29;21.30;48.10
70456;DHT22;57916;51.996;5.180;2022-07-29T01:12:18;21.30;48.10
70456;DHT22;57916;51.996;5.180;2022-07-29T01:14:47;21.30;48.20
70456;DHT22;57916;51.996;5.180;2022-07-29T01:25:26;21.20;48.60
70456;DHT22;57916;51.996;5.180;2022-07-29T01:30:30;21.20;48.70
70456;DHT22;57916;51.996;5.180;2022-07-29T01:33:03;21.20;48.60
70456;DHT22;57916;51.996;5.180;2022-07-29T01:35:38;21.20;48.50
70456;DHT22;57916;51.996;5.180;2022-07-29T01:38:12;21.20;48.50
70456;DHT22;57916;51.996;5.180;2022-07-29T01:40:48;21.20;48.60
70456;DHT22;57916;51.996;5.180;2022-07-29T01:43:21;21.20;48.50
70456;DHT22;57916;51.996;5.180;2022-07-29T01:45:58;21.20;48.80
70456;DHT22;57916;51.996;5.180;2022-07-29T01:48:43;21.10;49.00
70456;DHT22;57916;51.996;5.180;2022-07-29T01:51:19;21.20;49.10
70456;DHT22;57916;51.996;5.180;2022-07-29T01:56:18;21.20;48.90
70456;DHT22;57916;51.996;5.180;2022-07-29T01:58:47;21.20;48.80
70456;DHT22;57916;51.996;5.180;2022-07-29T02:01:15;21.20;48.80
70456;DHT22;57916;51.996;5.180;2022-07-29T02:03:45;21.20;48.60
70456;DHT22;57916;51.996;5.180;2022-07-29T02:06:15;21.30;48.70
70456;DHT22;57916;51.996;5.180;2022-07-29T02:08:43;21.20;48.70
70456;DHT22;57916;51.996;5.180;2022-07-29T02:11:11;21.20;48.80
70456;DHT22;57916;51.996;5.180;2022-07-29T02:13:38;21.20;48.90
70456;DHT22;57916;51.996;5.180;2022-07-29T02:16:06;21.20;48.90
70456;DHT22;57916;51.996;5.180;2022-07-29T02:18:37;21.10;49.00
70456;DHT22;57916;51.996;5.180;2022-07-29T02:21:05;21.10;49.00
70456;DHT22;57916;51.996;5.180;2022-07-29T02:23:42;21.10;49.20
70456;DHT22;57916;51.996;5.180;2022-07-29T02:26:18;21.10;49.30
70456;DHT22;57916;51.996;5.180;2022-07-29T02:28:47;21.20;49.40
70456;DHT22;57916;51.996;5.180;2022-07-29T02:31:16;21.20;49.20
70456;DHT22;57916;51.996;5.180;2022-07-29T02:33:45;21.20;49.10
70456;DHT22;57916;51.996;5.180;2022-07-29T02:36:14;21.10;48.80
70456;DHT22;57916;51.996;5.180;2022-07-29T02:38:43;21.10;49.10
70456;DHT22;57916;51.996;5.180;2022-07-29T02:41:24;21.10;49.10
70456;DHT22;57916;51.996;5.180;2022-07-29T02:43:58;21.10;49.20
70456;DHT22;57916;51.996;5.180;2022-07-29T02:46:31;21.10;49.10
70456;DHT22;57916;51.996;5.180;2022-07-29T02:49:15;21.10;49.00
70456;DHT22;57916;51.996;5.180;2022-07-29T02:51:55;21.10;49.00
70456;DHT22;57916;51.996;5.180;2022-07-29T02:54:42;21.00;49.10
70456;DHT22;57916;51.996;5.180;2022-07-29T02:57:22;21.00;49.20
70456;DHT22;57916;51.996;5.180;2022-07-29T02:59:54;20.90;49.20
70456;DHT22;57916;51.996;5.180;2022-07-29T03:02:25;20.90;49.20
70456;DHT22;57916;51.996;5.180;2022-07-29T03:04:54;20.90;49.60
70456;DHT22;57916;51.996;5.180;2022-07-29T03:07:24;20.90;49.60
70456;DHT22;57916;51.996;5.180;2022-07-29T03:09:51;20.90;49.80
70456;DHT22;57916;51.996;5.180;2022-07-29T03:12:19;20.80;49.60
70456;DHT22;57916;51.996;5.180;2022-07-29T03:14:47;20.80;49.50
70456;DHT22;57916;51.996;5.180;2022-07-29T03:17:14;20.80;49.80
70456;DHT22;57916;51.996;5.180;2022-07-29T03:19:42;20.80;49.90
70456;DHT22;57916;51.996;5.180;2022-07-29T03:22:09;20.70;49.70
70456;DHT22;57916;51.996;5.180;2022-07-29T03:24:37;20.70;50.10
70456;DHT22;57916;51.996;5.180;2022-07-29T03:27:04;20.70;50.00
70456;DHT22;57916;51.996;5.180;2022-07-29T03:29:32;20.70;50.00
70456;DHT22;57916;51.996;5.180;2022-07-29T03:32:05;20.70;50.00
70456;DHT22;57916;51.996;5.180;2022-07-29T03:34:34;20.70;50.00
70456;DHT22;57916;51.996;5.180;2022-07-29T03:37:01;20.70;49.70
70456;DHT22;57916;51.996;5.180;2022-07-29T03:39:33;20.60;49.90
70456;DHT22;57916;51.996;5.180;2022-07-29T03:42:02;20.60;49.90
70456;DHT22;57916;51.996;5.180;2022-07-29T03:44:31;20.60;50.00
70456;DHT22;57916;51.996;5.180;2022-07-29T03:46:59;20.60;49.90
70456;DHT22;57916;51.996;5.180;2022-07-29T03:49:29;20.70;50.00
70456;DHT22;57916;51.996;5.180;2022-07-29T03:51:57;20.60;49.70
70456;DHT22;57916;51.996;5.180;2022-07-29T03:54:24;20.60;49.80
70456;DHT22;57916;51.996;5.180;2022-07-29T03:56:52;20.60;49.70
70456;DHT22;57916;51.996;5.180;2022-07-29T03:59:21;20.60;49.80
70456;DHT22;57916;51.996;5.180;2022-07-29T04:01:50;20.60;49.90
70456;DHT22;57916;51.996;5.180;2022-07-29T04:04:17;20.60;50.10
70456;DHT22;57916;51.996;5.180;2022-07-29T04:06:45;20.60;49.80
70456;DHT22;57916;51.996;5.180;2022-07-29T04:09:14;20.60;49.80
70456;DHT22;57916;51.996;5.180;2022-07-29T04:11:41;20.60;49.80
70456;DHT22;57916;51.996;5.180;2022-07-29T04:14:28;20.60;49.90
70456;DHT22;57916;51.996;5.180;2022-07-29T04:16:55;20.60;49.80
70456;DHT22;57916;51.996;5.180;2022-07-29T04:19:22;20.60;50.20
70456;DHT22;57916;51.996;5.180;2022-07-29T04:21:49;20.60;49.80
70456;DHT22;57916;51.996;5.180;2022-07-29T04:24:16;20.60;49.80
70456;DHT22;57916;51.996;5.180;2022-07-29T04:26:45;20.50;49.80
70456;DHT22;57916;51.996;5.180;2022-07-29T04:29:13;20.50;49.90
70456;DHT22;57916;51.996;5.180;2022-07-29T04:31:41;20.60;49.90
70456;DHT22;57916;51.996;5.180;2022-07-29T04:34:09;20.60;49.90
70456;DHT22;57916;51.996;5.180;2022-07-29T04:36:36;20.60;49.80
70456;DHT22;57916;51.996;5.180;2022-07-29T04:39:03;20.60;49.80
70456;DHT22;57916;51.996;5.180;2022-07-29T04:41:31;20.60;49.70
70456;DHT22;57916;51.996;5.180;2022-07-29T04:43:59;20.60;50.60
70456;DHT22;57916;51.996;5.180;2022-07-29T04:46:34;20.70;49.60
70456;DHT22;57916;51.996;5.180;2022-07-29T04:49:02;20.70;49.80
70456;DHT22;57916;51.996;5.180;2022-07-29T04:51:30;20.70;49.90
70456;DHT22;57916;51.996;5.180;2022-07-29T04:53:57;20.70;49.90
70456;DHT22;57916;51.996;5.180;2022-07-29T04:56:23;20.70;49.70
70456;DHT22;57916;51.996;5.180;2022-07-29T04:58:50;20.70;49.80
70456;DHT22;57916;51.996;5.180;2022-07-29T05:01:18;20.60;50.10
70456;DHT22;57916;51.996;5.180;2022-07-29T05:03:45;20.70;50.20
70456;DHT22;57916;51.996;5.180;2022-07-29T05:06:12;20.70;50.20
70456;DHT22;57916;51.996;5.180;2022-07-29T05:08:39;20.70;50.30
70456;DHT22;57916;51.996;5.180;2022-07-29T05:11:07;20.70;51.30
70456;DHT22;57916;51.996;5.180;2022-07-29T05:13:39;20.70;50.20
70456;DHT22;57916;51.996;5.180;2022-07-29T05:16:13;20.80;50.10
70456;DHT22;57916;51.996;5.180;2022-07-29T05:18:41;20.70;50.20
70456;DHT22;57916;51.996;5.180;2022-07-29T05:21:09;20.70;50.00
70456;DHT22;57916;51.996;5.180;2022-07-29T05:23:35;20.80;50.30
70456;DHT22;57916;51.996;5.180;2022-07-29T05:26:02;20.80;50.30
70456;DHT22;57916;51.996;5.180;2022-07-29T05:28:33;20.70;51.30
70456;DHT22;57916;51.996;5.180;2022-07-29T05:31:01;20.70;50.40
70456;DHT22;57916;51.996;5.180;2022-07-29T05:33:28;20.60;50.90
70456;DHT22;57916;51.996;5.180;2022-07-29T05:36:06;20.60;50.90
70456;DHT22;57916;51.996;5.180;2022-07-29T05:38:37;20.60;51.50
70456;DHT22;57916;51.996;5.180;2022-07-29T05:41:04;20.60;51.80
70456;DHT22;57916;51.996;5.180;2022-07-29T05:43:31;20.60;51.90
70456;DHT22;57916;51.996;5.180;2022-07-29T05:45:58;20.70;51.40
70456;DHT22;57916;51.996;5.180;2022-07-29T05:48:26;20.80;51.40
70456;DHT22;57916;51.996;5.180;2022-07-29T05:50:53;20.90;51.00
70456;DHT22;57916;51.996;5.180;2022-07-29T05:53:20;21.00;50.90
70456;DHT22;57916;51.996;5.180;2022-07-29T05:55:48;21.00;50.50
70456;DHT22;57916;51.996;5.180;2022-07-29T05:58:15;21.10;50.50
70456;DHT22;57916;51.996;5.180;2022-07-29T06:00:43;21.30;50.10
70456;DHT22;57916;51.996;5.180;2022-07-29T06:03:10;21.30;49.40
70456;DHT22;57916;51.996;5.180;2022-07-29T06:05:37;21.30;49.40
70456;DHT22;57916;51.996;5.180;2022-07-29T06:08:04;21.30;49.80
70456;DHT22;57916;51.996;5.180;2022-07-29T06:10:37;21.40;49.60
70456;DHT22;57916;51.996;5.180;2022-07-29T06:13:04;21.50;49.20
70456;DHT22;57916;51.996;5.180;2022-07-29T06:15:31;21.60;49.30
70456;DHT22;57916;51.996;5.180;2022-07-29T06:17:58;21.60;49.30
70456;DHT22;57916;51.996;5.180;2022-07-29T06:20:28;21.70;48.80
70456;DHT22;57916;51.996;5.180;2022-07-29T06:22:59;21.50;49.00
70456;DHT22;57916;51.996;5.180;2022-07-29T06:25:27;21.50;49.20
70456;DHT22;57916;51.996;5.180;2022-07-29T06:27:57;21.50;49.30
70456;DHT22;57916;51.996;5.180;2022-07-29T06:30:24;21.40;49.50
70456;DHT22;57916;51.996;5.180;2022-07-29T06:32:51;21.30;49.50
70456;DHT22;57916;51.996;5.180;2022-07-29T06:35:18;21.30;49.90
70456;DHT22;57916;51.996;5.180;2022-07-29T06:38:05;21.30;49.80
70456;DHT22;57916;51.996;5.180;2022-07-29T06:40:52;21.50;49.60
70456;DHT22;57916;51.996;5.180;2022-07-29T06:43:36;21.50;48.90
70456;DHT22;57916;51.996;5.180;2022-07-29T06:46:17;21.50;49.10
70456;DHT22;57916;51.996;5.180;2022-07-29T06:48:45;21.50;49.50
70456;DHT22;57916;51.996;5.180;2022-07-29T06:51:13;21.50;49.70
70456;DHT22;57916;51.996;5.180;2022-07-29T06:53:40;21.50;49.10
70456;DHT22;57916;51.996;5.180;2022-07-29T06:56:27;21.50;48.80
70456;DHT22;57916;51.996;5.180;2022-07-29T06:58:54;21.50;49.40
70456;DHT22;57916;51.996;5.180;2022-07-29T07:01:21;21.60;49.10
70456;DHT22;57916;51.996;5.180;2022-07-29T07:03:48;21.60;49.00
70456;DHT22;57916;51.996;5.180;2022-07-29T07:06:15;21.60;49.30
70456;DHT22;57916;51.996;5.180;2022-07-29T07:08:42;21.70;49.40
70456;DHT22;57916;51.996;5.180;2022-07-29T07:11:09;21.60;49.40
70456;DHT22;57916;51.996;5.180;2022-07-29T07:13:36;21.70;49.90
70456;DHT22;57916;51.996;5.180;2022-07-29T07:16:04;21.80;50.20
70456;DHT22;57916;51.996;5.180;2022-07-29T07:18:31;22.00;50.90
70456;DHT22;57916;51.996;5.180;2022-07-29T07:20:59;22.20;49.70
70456;DHT22;57916;51.996;5.180;2022-07-29T07:23:26;22.40;48.70
70456;DHT22;57916;51.996;5.180;2022-07-29T07:25:53;22.40;47.70
70456;DHT22;57916;51.996;5.180;2022-07-29T07:28:20;22.40;47.60
70456;DHT22;57916;51.996;5.180;2022-07-29T07:30:51;22.50;47.90
70456;DHT22;57916;51.996;5.180;2022-07-29T07:33:18;22.70;47.50
70456;DHT22;57916;51.996;5.180;2022-07-29T07:35:46;22.70;47.10
70456;DHT22;57916;51.996;5.180;2022-07-29T07:38:13;22.80;47.20
70456;DHT22;57916;51.996;5.180;2022-07-29T07:40:40;22.90;47.10
70456;DHT22;57916;51.996;5.180;2022-07-29T07:43:07;22.90;47.00
70456;DHT22;57916;51.996;5.180;2022-07-29T07:45:34;23.00;46.70
70456;DHT22;57916;51.996;5.180;2022-07-29T07:48:04;23.00;46.90
70456;DHT22;57916;51.996;5.180;2022-07-29T07:50:31;23.00;46.90
70456;DHT22;57916;51.996;5.180;2022-07-29T07:52:58;23.00;46.60
70456;DHT22;57916;51.996;5.180;2022-07-29T07:55:26;23.00;46.00
70456;DHT22;57916;51.996;5.180;2022-07-29T07:57:54;23.20;46.00
70456;DHT22;57916;51.996;5.180;2022-07-29T08:00:21;23.40;45.90
70456;DHT22;57916;51.996;5.180;2022-07-29T08:02:49;23.60;45.20
70456;DHT22;57916;51.996;5.180;2022-07-29T08:05:18;23.80;44.80
70456;DHT22;57916;51.996;5.180;2022-07-29T08:07:46;24.00;44.50
70456;DHT22;57916;51.996;5.180;2022-07-29T08:10:14;24.20;43.00
70456;DHT22;57916;51.996;5.180;2022-07-29T08:13:08;24.40;43.30
70456;DHT22;57916;51.996;5.180;2022-07-29T08:15:35;24.70;42.80
70456;DHT22;57916;51.996;5.180;2022-07-29T08:18:03;24.90;42.50
70456;DHT22;57916;51.996;5.180;2022-07-29T08:20:35;25.10;42.10
70456;DHT22;57916;51.996;5.180;2022-07-29T08:23:02;25.30;40.80
70456;DHT22;57916;51.996;5.180;2022-07-29T08:25:31;25.50;41.40
70456;DHT22;57916;51.996;5.180;2022-07-29T08:28:00;25.90;40.00
70456;DHT22;57916;51.996;5.180;2022-07-29T08:30:27;26.30;38.60
70456;DHT22;57916;51.996;5.180;2022-07-29T08:32:54;26.70;38.30
70456;DHT22;57916;51.996;5.180;2022-07-29T08:35:23;27.20;37.50
70456;DHT22;57916;51.996;5.180;2022-07-29T08:37:51;27.60;37.60
70456;DHT22;57916;51.996;5.180;2022-07-29T08:40:18;28.20;36.60
70456;DHT22;57916;51.996;5.180;2022-07-29T08:42:57;28.70;34.80
70456;DHT22;57916;51.996;5.180;2022-07-29T08:45:25;29.20;33.90
70456;DHT22;57916;51.996;5.180;2022-07-29T08:47:52;29.60;33.40
70456;DHT22;57916;51.996;5.180;2022-07-29T08:50:19;29.90;32.50
70456;DHT22;57916;51.996;5.180;2022-07-29T08:52:47;30.10;32.00
70456;DHT22;57916;51.996;5.180;2022-07-29T08:55:15;30.40;32.00
70456;DHT22;57916;51.996;5.180;2022-07-29T08:57:47;30.60;31.10
70456;DHT22;57916;51.996;5.180;2022-07-29T09:00:21;30.80;31.70
70456;DHT22;57916;51.996;5.180;2022-07-29T09:02:54;31.10;31.60
70456;DHT22;57916;51.996;5.180;2022-07-29T09:05:24;31.40;30.90
70456;DHT22;57916;51.996;5.180;2022-07-29T09:07:51;31.70;30.20
70456;DHT22;57916;51.996;5.180;2022-07-29T09:10:18;31.90;29.60
70456;DHT22;57916;51.996;5.180;2022-07-29T09:12:45;32.20;29.40
70456;DHT22;57916;51.996;5.180;2022-07-29T09:15:12;32.30;29.10
70456;DHT22;57916;51.996;5.180;2022-07-29T09:17:41;32.40;29.00
70456;DHT22;57916;51.996;5.180;2022-07-29T09:20:14;32.40;28.60
70456;DHT22;57916;51.996;5.180;2022-07-29T09:22:41;32.30;28.50
70456;DHT22;57916;51.996;5.180;2022-07-29T09:25:08;32.30;29.90
70456;DHT22;57916;51.996;5.180;2022-07-29T09:27:38;32.40;28.80
70456;DHT22;57916;51.996;5.180;2022-07-29T09:30:09;32.50;28.10
70456;DHT22;57916;51.996;5.180;2022-07-29T09:32:57;32.50;27.90
70456;DHT22;57916;51.996;5.180;2022-07-29T09:35:26;32.40;28.00
70456;DHT22;57916;51.996;5.180;2022-07-29T09:37:54;32.50;28.20
70456;DHT22;57916;51.996;5.180;2022-07-29T09:40:24;32.60;29.00
70456;DHT22;57916;51.996;5.180;2022-07-29T09:42:51;32.80;27.90
70456;DHT22;57916;51.996;5.180;2022-07-29T09:45:31;32.90;28.10
70456;DHT22;57916;51.996;5.180;2022-07-29T09:47:59;32.90;27.40
70456;DHT22;57916;51.996;5.180;2022-07-29T09:50:37;32.80;27.80
70456;DHT22;57916;51.996;5.180;2022-07-29T09:53:04;32.70;27.30
70456;DHT22;57916;51.996;5.180;2022-07-29T09:55:31;32.70;28.00
70456;DHT22;57916;51.996;5.180;2022-07-29T09:58:17;32.70;28.50
70456;DHT22;57916;51.996;5.180;2022-07-29T10:00:45;32.90;28.30
70456;DHT22;57916;51.996;5.180;2022-07-29T10:03:14;33.20;27.90
70456;DHT22;57916;51.996;5.180;2022-07-29T10:05:43;33.30;27.80
70456;DHT22;57916;51.996;5.180;2022-07-29T10:08:11;33.50;27.70
70456;DHT22;57916;51.996;5.180;2022-07-29T10:10:42;33.80;27.20
70456;DHT22;57916;51.996;5.180;2022-07-29T10:13:12;34.10;27.30
70456;DHT22;57916;51.996;5.180;2022-07-29T10:15:43;34.30;27.60
70456;DHT22;57916;51.996;5.180;2022-07-29T10:18:13;34.50;26.60
70456;DHT22;57916;51.996;5.180;2022-07-29T10:20:40;34.40;26.20
70456;DHT22;57916;51.996;5.180;2022-07-29T10:23:08;34.40;26.30
70456;DHT22;57916;51.996;5.180;2022-07-29T10:25:35;34.60;26.70
70456;DHT22;57916;51.996;5.180;2022-07-29T10:28:02;34.50;26.20
70456;DHT22;57916;51.996;5.180;2022-07-29T10:30:31;34.60;26.90
70456;DHT22;57916;51.996;5.180;2022-07-29T10:39:25;35.50;26.90
70456;DHT22;57916;51.996;5.180;2022-07-29T10:45:07;35.70;26.00
70456;DHT22;57916;51.996;5.180;2022-07-29T10:47:34;35.80;26.80
70456;DHT22;57916;51.996;5.180;2022-07-29T10:50:03;35.90;26.30
70456;DHT22;57916;51.996;5.180;2022-07-29T10:55:39;36.20;24.90
70456;DHT22;57916;51.996;5.180;2022-07-29T10:58:18;36.30;25.40
70456;DHT22;57916;51.996;5.180;2022-07-29T11:00:50;36.40;26.30
70456;DHT22;57916;51.996;5.180;2022-07-29T11:06:17;36.40;25.40
70456;DHT22;57916;51.996;5.180;2022-07-29T11:09:15;36.30;25.50
70456;DHT22;57916;51.996;5.180;2022-07-29T11:11:42;36.30;24.80
70456;DHT22;57916;51.996;5.180;2022-07-29T11:14:13;36.30;25.90
70456;DHT22;57916;51.996;5.180;2022-07-29T11:17:04;36.50;25.70
70456;DHT22;57916;51.996;5.180;2022-07-29T11:19:33;36.60;26.10
70456;DHT22;57916;51.996;5.180;2022-07-29T11:22:01;36.70;25.10
70456;DHT22;57916;51.996;5.180;2022-07-29T11:24:29;36.60;24.40
70456;DHT22;57916;51.996;5.180;2022-07-29T11:27:19;36.50;25.40
70456;DHT22;57916;51.996;5.180;2022-07-29T11:29:57;36.50;24.80
70456;DHT22;57916;51.996;5.180;2022-07-29T11:32:43;36.50;25.60
70456;DHT22;57916;51.996;5.180;2022-07-29T11:35:20;36.40;24.90
70456;DHT22;57916;51.996;5.180;2022-07-29T11:41:29;36.10;25.10
70456;DHT22;57916;51.996;5.180;2022-07-29T11:44:03;36.10;25.90
70456;DHT22;57916;51.996;5.180;2022-07-29T11:46:50;36.10;25.20
70456;DHT22;57916;51.996;5.180;2022-07-29T11:49:24;36.00;25.50
70456;DHT22;57916;51.996;5.180;2022-07-29T11:51:59;36.00;24.90
70456;DHT22;57916;51.996;5.180;2022-07-29T11:54:34;36.00;26.00
70456;DHT22;57916;51.996;5.180;2022-07-29T11:57:21;35.90;26.20
70456;DHT22;57916;51.996;5.180;2022-07-29T12:00:07;35.80;25.30
70456;DHT22;57916;51.996;5.180;2022-07-29T12:02:42;35.80;25.50
70456;DHT22;57916;51.996;5.180;2022-07-29T12:05:14;35.80;25.30
70456;DHT22;57916;51.996;5.180;2022-07-29T12:08:06;35.60;25.40
70456;DHT22;57916;51.996;5.180;2022-07-29T12:10:39;35.30;25.30
70456;DHT22;57916;51.996;5.180;2022-07-29T12:13:08;35.20;25.80
70456;DHT22;57916;51.996;5.180;2022-07-29T12:15:36;35.20;25.80
70456;DHT22;57916;51.996;5.180;2022-07-29T12:18:18;35.30;26.20
70456;DHT22;57916;51.996;5.180;2022-07-29T12:20:57;35.40;26.20
70456;DHT22;57916;51.996;5.180;2022-07-29T12:23:30;35.40;26.40
70456;DHT22;57916;51.996;5.180;2022-07-29T12:26:04;35.50;26.50
70456;DHT22;57916;51.996;5.180;2022-07-29T12:28:37;35.40;25.80
70456;DHT22;57916;51.996;5.180;2022-07-29T12:31:05;35.30;25.80
70456;DHT22;57916;51.996;5.180;2022-07-29T12:33:34;35.30;26.20
70456;DHT22;57916;51.996;5.180;2022-07-29T12:36:02;35.30;26.30
70456;DHT22;57916;51.996;5.180;2022-07-29T12:38:40;35.20;25.30
70456;DHT22;57916;51.996;5.180;2022-07-29T12:41:07;35.10;25.40
70456;DHT22;57916;51.996;5.180;2022-07-29T12:43:34;35.00;26.60
70456;DHT22;57916;51.996;5.180;2022-07-29T12:46:12;34.90;26.20
70456;DHT22;57916;51.996;5.180;2022-07-29T12:48:41;34.80;27.20
70456;DHT22;57916;51.996;5.180;2022-07-29T12:51:09;34.70;25.90
70456;DHT22;57916;51.996;5.180;2022-07-29T12:53:37;34.60;25.30
70456;DHT22;57916;51.996;5.180;2022-07-29T12:56:05;34.40;25.00
70456;DHT22;57916;51.996;5.180;2022-07-29T12:58:52;34.30;26.50
70456;DHT22;57916;51.996;5.180;2022-07-29T13:01:20;34.10;26.80
70456;DHT22;57916;51.996;5.180;2022-07-29T13:03:55;34.00;27.50
70456;DHT22;57916;51.996;5.180;2022-07-29T13:06:44;33.90;27.50
70456;DHT22;57916;51.996;5.180;2022-07-29T13:09:20;33.70;28.10
70456;DHT22;57916;51.996;5.180;2022-07-29T13:11:52;33.60;28.10
70456;DHT22;57916;51.996;5.180;2022-07-29T13:14:36;33.50;27.90
70456;DHT22;57916;51.996;5.180;2022-07-29T13:17:09;33.40;28.40
70456;DHT22;57916;51.996;5.180;2022-07-29T13:22:10;33.20;28.50
70456;DHT22;57916;51.996;5.180;2022-07-29T13:24:48;33.10;28.60
70456;DHT22;57916;51.996;5.180;2022-07-29T13:27:21;32.90;29.00
70456;DHT22;57916;51.996;5.180;2022-07-29T13:29:48;32.90;28.90
70456;DHT22;57916;51.996;5.180;2022-07-29T13:32:19;32.80;29.20
70456;DHT22;57916;51.996;5.180;2022-07-29T13:34:59;32.80;30.00
70456;DHT22;57916;51.996;5.180;2022-07-29T13:37:31;32.80;29.00
70456;DHT22;57916;51.996;5.180;2022-07-29T13:39:59;32.80;28.00
70456;DHT22;57916;51.996;5.180;2022-07-29T13:42:26;32.70;28.20
70456;DHT22;57916;51.996;5.180;2022-07-29T13:44:53;32.70;28.70
70456;DHT22;57916;51.996;5.180;2022-07-29T13:47:21;32.60;29.00
70456;DHT22;57916;51.996;5.180;2022-07-29T13:50:02;32.60;28.50
70456;DHT22;57916;51.996;5.180;2022-07-29T13:52:31;32.60;27.40
70456;DHT22;57916;51.996;5.180;2022-07-29T13:54:58;32.50;27.80
70456;DHT22;57916;51.996;5.180;2022-07-29T13:57:26;32.50;28.00
70456;DHT22;57916;51.996;5.180;2022-07-29T13:59:53;32.40;27.60
70456;DHT22;57916;51.996;5.180;2022-07-29T14:02:20;32.30;27.80
70456;DHT22;57916;51.996;5.180;2022-07-29T14:04:53;32.20;29.50
70456;DHT22;57916;51.996;5.180;2022-07-29T14:07:21;32.20;28.90
70456;DHT22;57916;51.996;5.180;2022-07-29T14:09:47;32.10;28.70
70456;DHT22;57916;51.996;5.180;2022-07-29T14:12:14;32.10;28.40
70456;DHT22;57916;51.996;5.180;2022-07-29T14:14:41;32.10;28.50
70456;DHT22;57916;51.996;5.180;2022-07-29T14:17:08;32.00;28.20
70456;DHT22;57916;51.996;5.180;2022-07-29T14:19:36;32.10;28.80
70456;DHT22;57916;51.996;5.180;2022-07-29T14:22:06;32.00;29.10
70456;DHT22;57916;51.996;5.180;2022-07-29T14:24:35;32.00;28.40
70456;DHT22;57916;51.996;5.180;2022-07-29T14:27:04;32.00;28.20
70456;DHT22;57916;51.996;5.180;2022-07-29T14:29:31;31.90;29.30
70456;DHT22;57916;51.996;5.180;2022-07-29T14:32:04;31.90;28.40
70456;DHT22;57916;51.996;5.180;2022-07-29T14:34:33;31.90;29.00
70456;DHT22;57916;51.996;5.180;2022-07-29T14:37:00;31.90;29.60
70456;DHT22;57916;51.996;5.180;2022-07-29T14:39:27;31.80;29.70
70456;DHT22;57916;51.996;5.180;2022-07-29T14:41:58;31.80;28.60
70456;DHT22;57916;51.996;5.180;2022-07-29T14:44:26;31.80;28.60
70456;DHT22;57916;51.996;5.180;2022-07-29T14:47:01;31.70;30.00
70456;DHT22;57916;51.996;5.180;2022-07-29T14:49:34;31.60;29.10
70456;DHT22;57916;51.996;5.180;2022-07-29T14:52:01;31.60;29.60
70456;DHT22;57916;51.996;5.180;2022-07-29T14:54:28;31.50;29.30
70456;DHT22;57916;51.996;5.180;2022-07-29T14:56:55;31.40;28.70
70456;DHT22;57916;51.996;5.180;2022-07-29T14:59:24;31.40;28.70
70456;DHT22;57916;51.996;5.180;2022-07-29T15:01:51;31.40;29.30
70456;DHT22;57916;51.996;5.180;2022-07-29T15:04:18;31.30;28.80
70456;DHT22;57916;51.996;5.180;2022-07-29T15:06:45;31.20;28.70
70456;DHT22;57916;51.996;5.180;2022-07-29T15:09:13;31.20;29.50
70456;DHT22;57916;51.996;5.180;2022-07-29T15:11:40;31.20;30.00
70456;DHT22;57916;51.996;5.180;2022-07-29T15:14:07;31.20;28.80
70456;DHT22;57916;51.996;5.180;2022-07-29T15:16:38;31.10;28.00
70456;DHT22;57916;51.996;5.180;2022-07-29T15:19:10;31.10;28.90
70456;DHT22;57916;51.996;5.180;2022-07-29T15:21:37;31.10;29.20
70456;DHT22;57916;51.996;5.180;2022-07-29T15:24:18;31.10;28.50
70456;DHT22;57916;51.996;5.180;2022-07-29T15:26:46;31.10;28.10
70456;DHT22;57916;51.996;5.180;2022-07-29T15:29:13;31.00;27.70
70456;DHT22;57916;51.996;5.180;2022-07-29T15:31:40;31.00;28.10
70456;DHT22;57916;51.996;5.180;2022-07-29T15:34:07;30.90;28.60
70456;DHT22;57916;51.996;5.180;2022-07-29T15:36:34;30.90;28.10
70456;DHT22;57916;51.996;5.180;2022-07-29T15:39:18;30.90;28.40
70456;DHT22;57916;51.996;5.180;2022-07-29T15:41:45;30.90;28.50
70456;DHT22;57916;51.996;5.180;2022-07-29T15:44:12;30.90;28.10
70456;DHT22;57916;51.996;5.180;2022-07-29T15:46:39;30.80;28.50
70456;DHT22;57916;51.996;5.180;2022-07-29T15:49:25;30.80;28.80
70456;DHT22;57916;51.996;5.180;2022-07-29T15:52:16;30.80;28.70
70456;DHT22;57916;51.996;5.180;2022-07-29T15:54:50;30.70;27.80
70456;DHT22;57916;51.996;5.180;2022-07-29T15:57:17;30.70;28.30
70456;DHT22;57916;51.996;5.180;2022-07-29T15:59:44;30.70;29.10
70456;DHT22;57916;51.996;5.180;2022-07-29T16:02:11;30.70;29.40
70456;DHT22;57916;51.996;5.180;2022-07-29T16:04:38;30.60;29.90
70456;DHT22;57916;51.996;5.180;2022-07-29T16:07:05;30.60;29.70
70456;DHT22;57916;51.996;5.180;2022-07-29T16:09:32;30.50;29.60
70456;DHT22;57916;51.996;5.180;2022-07-29T16:11:59;30.50;30.40
70456;DHT22;57916;51.996;5.180;2022-07-29T16:14:26;30.50;30.80
70456;DHT22;57916;51.996;5.180;2022-07-29T16:16:54;30.50;31.00
70456;DHT22;57916;51.996;5.180;2022-07-29T16:19:22;30.50;30.20
70456;DHT22;57916;51.996;5.180;2022-07-29T16:21:49;30.40;30.20
70456;DHT22;57916;51.996;5.180;2022-07-29T16:24:16;30.50;29.80